Aviation Digital Data Service (ADDS)

Output produced by METARs form (0555 UTC 06 March 2015)
found at http://aviationweather.gov/adds/metars/
 
KGFL 060543Z 0606/0706 00000KT P6SM SKC 
     FM061500 18005KT P6SM SKC 
     FM062200 VRB03KT P6SM BKN250